createdAt,value
2022-08-20T00:02:14.703Z,101365.81
2022-08-20T00:04:42.079Z,101361.47
2022-08-20T00:07:09.385Z,101358.81
2022-08-20T00:09:37.045Z,101358.94
2022-08-20T00:12:07.037Z,101357.25
2022-08-20T00:14:36.179Z,101352.19
2022-08-20T00:17:05.226Z,101354.97
2022-08-20T00:19:32.508Z,101352.44
2022-08-20T00:21:59.795Z,101356.19
2022-08-20T00:24:27.131Z,101352.34
2022-08-20T00:26:54.398Z,101357.31
2022-08-20T00:29:22.599Z,101357.94
2022-08-20T00:31:51.100Z,101352.88
2022-08-20T00:34:18.817Z,101356.75
2022-08-20T00:36:46.990Z,101361.44
2022-08-20T00:39:14.434Z,101360.72
2022-08-20T00:41:41.898Z,101356.38
2022-08-20T00:44:22.028Z,101358.19
2022-08-20T00:46:51.408Z,101365.28
2022-08-20T00:49:28.189Z,101355.66
2022-08-20T00:52:18.920Z,101358.56
2022-08-20T00:54:59.197Z,101358.94
2022-08-20T00:57:44.515Z,101359.06
2022-08-20T01:00:35.711Z,101354.69
2022-08-20T01:03:03.913Z,101348.31
2022-08-20T01:05:32.223Z,101356.28
2022-08-20T01:07:59.571Z,101352.88
2022-08-20T01:10:35.040Z,101359.28
2022-08-20T01:13:15.947Z,101355.06
2022-08-20T01:15:48.273Z,101359.53
2022-08-20T01:18:25.329Z,101353.50
2022-08-20T01:21:04.067Z,101354.47
2022-08-20T01:23:53.876Z,101354.34
2022-08-20T01:26:37.459Z,101357.00
2022-08-20T01:29:13.471Z,101347.34
2022-08-20T01:31:42.635Z,101352.53
2022-08-20T01:34:20.945Z,101352.41
2022-08-20T01:36:53.377Z,101351.34
2022-08-20T01:39:34.765Z,101355.66
2022-08-20T01:42:36.213Z,101356.66
2022-08-20T01:45:07.622Z,101357.72
2022-08-20T01:47:38.508Z,101350.97
2022-08-20T01:50:24.705Z,101354.72
2022-08-20T01:53:30.095Z,101352.91
2022-08-20T01:55:57.490Z,101347.34
2022-08-20T01:58:24.961Z,101351.69
2022-08-20T02:00:52.279Z,101354.22
2022-08-20T02:03:19.549Z,101355.06
2022-08-20T02:05:47.183Z,101354.47
2022-08-20T02:08:15.009Z,101359.91
2022-08-20T02:10:42.568Z,101352.91
2022-08-20T02:13:10.201Z,101357.13
2022-08-20T02:15:39.946Z,101357.25
2022-08-20T02:18:15.656Z,101359.91
2022-08-20T02:20:45.966Z,101361.56
2022-08-20T02:23:15.571Z,101358.91
2022-08-20T02:25:47.496Z,101356.88
2022-08-20T02:28:20.676Z,101358.69
2022-08-20T02:30:53.381Z,101354.34
2022-08-20T02:33:24.419Z,101354.13
2022-08-20T02:35:56.379Z,101346.03
2022-08-20T02:38:24.320Z,101359.06
2022-08-20T02:40:52.231Z,101359.06
2022-08-20T02:43:20.233Z,101360.97
2022-08-20T02:45:47.640Z,101363.03
2022-08-20T02:48:20.974Z,101363.88
2022-08-20T02:51:09.079Z,101369.16
2022-08-20T02:53:41.195Z,101366.53
2022-08-20T02:56:11.923Z,101363.03
2022-08-20T02:58:41.603Z,101371.00
2022-08-20T03:01:16.765Z,101362.06
2022-08-20T03:03:45.475Z,101369.06
2022-08-20T03:06:14.830Z,101362.91
2022-08-20T03:08:43.953Z,101368.09
2022-08-20T03:11:12.049Z,101364.72
2022-08-20T03:13:39.448Z,101358.56
2022-08-20T03:16:08.322Z,101357.72
2022-08-20T03:18:44.957Z,101352.66
2022-08-20T03:21:14.796Z,101359.78
2022-08-20T03:23:43.884Z,101364.22
2022-08-20T03:26:13.814Z,101357.25
2022-08-20T03:28:42.120Z,101364.34
2022-08-20T03:31:10.197Z,101362.69
2022-08-20T03:33:52.681Z,101363.53
2022-08-20T03:36:28.166Z,101366.88
2022-08-20T03:39:05.539Z,101374.84
2022-08-20T03:41:32.863Z,101378.25
2022-08-20T03:44:00.134Z,101370.28
2022-08-20T03:46:27.468Z,101364.97
2022-08-20T03:48:59.815Z,101367.50
2022-08-20T03:51:30.769Z,101364.84
2022-08-20T03:53:59.006Z,101366.63
2022-08-20T03:56:27.265Z,101377.25
2022-08-20T03:58:54.847Z,101374.72
2022-08-20T04:01:44.261Z,101358.91
2022-08-20T04:04:12.242Z,101362.56
2022-08-20T04:06:42.516Z,101367.13
2022-08-20T04:09:12.347Z,101367.25
2022-08-20T04:11:41.789Z,101374.38
2022-08-20T04:14:11.829Z,101382.34
2022-08-20T04:16:46.303Z,101381.63
2022-08-20T04:19:16.864Z,101391.50
2022-08-20T04:21:44.388Z,101380.16
2022-08-20T04:24:21.993Z,101383.78
2022-08-20T04:27:02.488Z,101386.69
2022-08-20T04:29:32.204Z,101387.66
2022-08-20T04:32:02.761Z,101386.81
2022-08-20T04:34:34.795Z,101389.59
2022-08-20T04:37:02.154Z,101395.84
2022-08-20T04:39:29.444Z,101395.13
2022-08-20T04:41:56.739Z,101410.06
2022-08-20T04:44:24.031Z,101392.38
2022-08-20T04:46:51.334Z,101399.47
2022-08-20T04:49:20.558Z,101411.78
2022-08-20T04:51:47.793Z,101414.44
2022-08-20T04:54:15.055Z,101412.72
2022-08-20T04:56:44.876Z,101412.00
2022-08-20T04:59:12.137Z,101417.19
2022-08-20T05:01:39.461Z,101419.97
2022-08-20T05:04:06.726Z,101423.47
2022-08-20T05:06:34.139Z,101428.66
2022-08-20T05:09:01.517Z,101433.84
2022-08-20T05:11:33.946Z,101429.63
2022-08-20T05:14:11.355Z,101436.00
2022-08-20T05:16:40.910Z,101434.53
2022-08-20T05:19:12.371Z,101439.13
2022-08-20T05:21:40.417Z,101440.09
2022-08-20T05:24:08.363Z,101431.41
2022-08-20T05:26:36.501Z,101436.00
2022-08-20T05:29:05.621Z,101435.13
2022-08-20T05:31:34.742Z,101434.41
2022-08-20T05:34:11.874Z,101445.03
2022-08-20T05:36:52.170Z,101444.19
2022-08-20T05:39:23.001Z,101449.38
2022-08-20T05:41:51.327Z,101443.09
2022-08-20T05:44:19.957Z,101449.97
2022-08-20T05:46:48.555Z,101444.69
2022-08-20T05:49:21.538Z,101442.03
2022-08-20T05:51:51.374Z,101449.16
2022-08-20T05:54:18.814Z,101457.09
2022-08-20T05:56:46.221Z,101456.34
2022-08-20T05:59:14.144Z,101457.22
2022-08-20T06:01:43.128Z,101460.81
2022-08-20T06:04:32.028Z,101455.53
2022-08-20T06:07:06.801Z,101460.94
2022-08-20T06:09:36.249Z,101463.72
2022-08-20T06:12:08.378Z,101462.00
2022-08-20T06:14:36.450Z,101460.47
2022-08-20T06:17:15.501Z,101467.44
2022-08-20T06:19:46.116Z,101464.91
2022-08-20T06:22:18.102Z,101458.75
2022-08-20T06:24:47.830Z,101467.53
2022-08-20T06:27:17.292Z,101463.00
2022-08-20T06:29:45.062Z,101464.53
2022-08-20T06:32:12.558Z,101460.81
2022-08-20T06:34:50.481Z,101467.59
2022-08-20T06:37:30.908Z,101464.34
2022-08-20T06:40:19.675Z,101464.84
2022-08-20T06:42:48.880Z,101464.25
2022-08-20T06:45:24.477Z,101467.13
2022-08-20T06:47:55.841Z,101466.66
2022-08-20T06:50:43.164Z,101476.19
2022-08-20T06:53:20.796Z,101473.06
2022-08-20T06:55:54.707Z,101474.25
2022-08-20T06:58:37.832Z,101475.28
2022-08-20T07:01:12.321Z,101473.31
2022-08-20T07:03:54.791Z,101473.09
2022-08-20T07:06:26.143Z,101472.97
2022-08-20T07:08:55.774Z,101469.34
2022-08-20T07:11:27.794Z,101474.28
2022-08-20T07:13:58.462Z,101482.59
2022-08-20T07:16:27.173Z,101489.13
2022-08-20T07:18:54.908Z,101488.06
2022-08-20T07:21:22.216Z,101488.06
2022-08-20T07:23:49.605Z,101485.03
2022-08-20T07:26:18.291Z,101492.00
2022-08-20T07:28:46.679Z,101493.59
2022-08-20T07:31:34.977Z,101493.94
2022-08-20T07:34:03.997Z,101499.13
2022-08-20T07:36:33.219Z,101498.38
2022-08-20T07:39:05.682Z,101509.78
2022-08-20T07:41:34.226Z,101497.81
2022-08-20T07:44:02.412Z,101500.81
2022-08-20T07:46:31.610Z,101503.00
2022-08-20T07:48:59.658Z,101511.44
2022-08-20T07:51:27.625Z,101516.63
2022-08-20T07:53:58.402Z,101515.09
2022-08-20T07:56:26.642Z,101519.06
2022-08-20T07:59:01.494Z,101524.03
2022-08-20T08:01:32.326Z,101521.16
2022-08-20T08:04:00.728Z,101516.81
2022-08-20T08:06:31.291Z,101523.44
2022-08-20T08:09:14.232Z,101516.41
2022-08-20T08:11:50.356Z,101516.25
2022-08-20T08:14:26.659Z,101530.22
2022-08-20T08:17:02.097Z,101518.50
2022-08-20T08:19:38.805Z,101520.50
2022-08-20T08:22:12.663Z,101524.00
2022-08-20T08:24:43.298Z,101523.28
2022-08-20T08:27:24.374Z,101523.63
2022-08-20T08:29:51.665Z,101525.09
2022-08-20T08:32:19.480Z,101532.63
2022-08-20T08:34:48.127Z,101529.28
2022-08-20T08:37:15.431Z,101529.06
2022-08-20T08:39:42.844Z,101541.16
2022-08-20T08:42:48.087Z,101534.03
2022-08-20T08:45:17.298Z,101535.22
2022-08-20T08:47:45.930Z,101538.28
2022-08-20T08:50:52.947Z,101548.97
2022-08-20T08:53:33.478Z,101552.53
2022-08-20T08:56:02.094Z,101555.59
2022-08-20T08:58:29.758Z,101556.41
2022-08-20T09:00:57.362Z,101548.22
2022-08-20T09:03:36.499Z,101546.91
2022-08-20T09:06:04.448Z,101549.56
2022-08-20T09:09:06.589Z,101554.28
2022-08-20T09:11:50.460Z,101546.53
2022-08-20T09:14:21.714Z,101547.59
2022-08-20T09:16:52.168Z,101552.38
2022-08-20T09:19:21.680Z,101556.50
2022-08-20T09:21:49.508Z,101567.38
2022-08-20T09:24:17.083Z,101567.63
2022-08-20T09:26:44.771Z,101562.81
2022-08-20T09:29:12.143Z,101563.81
2022-08-20T09:31:40.313Z,101548.97
2022-08-20T09:34:07.718Z,101555.22
2022-08-20T09:36:35.764Z,101558.63
2022-08-20T09:39:03.431Z,101552.59
2022-08-20T09:41:33.729Z,101545.22
2022-08-20T09:44:02.484Z,101546.06
2022-08-20T09:46:29.809Z,101546.19
2022-08-20T09:48:57.131Z,101554.16
2022-08-20T09:51:24.523Z,101554.56
2022-08-20T09:53:52.111Z,101547.53
2022-08-20T09:56:19.498Z,101551.19
2022-08-20T09:59:02.363Z,101549.31
2022-08-20T10:01:30.333Z,101551.31
2022-08-20T10:03:57.664Z,101556.97
2022-08-20T10:06:25.036Z,101554.00
2022-08-20T10:08:52.565Z,101553.34
2022-08-20T10:11:19.898Z,101555.38
2022-08-20T10:13:48.006Z,101554.25
2022-08-20T10:16:15.308Z,101557.25
2022-08-20T10:18:42.604Z,101552.03
2022-08-20T10:21:12.432Z,101554.06
2022-08-20T10:23:40.553Z,101556.28
2022-08-20T10:26:10.901Z,101559.19
2022-08-20T10:28:39.082Z,101562.56
2022-08-20T10:31:10.029Z,101555.66
2022-08-20T10:33:40.337Z,101564.81
2022-08-20T10:36:18.052Z,101560.88
2022-08-20T10:38:45.563Z,101562.06
2022-08-20T10:41:12.953Z,101563.97
2022-08-20T10:43:40.451Z,101567.63
2022-08-20T10:46:07.796Z,101566.34
2022-08-20T10:48:35.746Z,101569.97
2022-08-20T10:51:03.307Z,101570.97
2022-08-20T10:53:31.147Z,101564.03
2022-08-20T10:55:59.051Z,101557.25
2022-08-20T10:58:37.443Z,101558.84
2022-08-20T11:01:07.585Z,101560.31
2022-08-20T11:03:36.505Z,101559.72
2022-08-20T11:06:04.821Z,101563.19
2022-08-20T11:08:33.682Z,101562.66
2022-08-20T11:11:02.268Z,101563.31
2022-08-20T11:13:29.590Z,101562.03
2022-08-20T11:15:56.967Z,101564.34
2022-08-20T11:18:24.324Z,101555.59
2022-08-20T11:20:52.325Z,101558.13
2022-08-20T11:23:19.770Z,101562.78
2022-08-20T11:25:49.848Z,101558.28
2022-08-20T11:28:31.679Z,101563.75
2022-08-20T11:31:01.559Z,101565.88
2022-08-20T11:33:29.612Z,101565.19
2022-08-20T11:35:57.138Z,101568.25
2022-08-20T11:38:24.889Z,101566.97
2022-08-20T11:40:52.169Z,101573.50
2022-08-20T11:43:19.531Z,101577.75
2022-08-20T11:45:54.485Z,101575.88
2022-08-20T11:48:22.395Z,101577.22
2022-08-20T11:50:50.683Z,101576.13
2022-08-20T11:53:18.075Z,101576.53
2022-08-20T11:55:46.806Z,101573.69
2022-08-20T11:58:15.216Z,101569.84
2022-08-20T12:00:42.767Z,101566.13
2022-08-20T12:03:11.624Z,101569.47
2022-08-20T12:05:44.811Z,101562.56
2022-08-20T12:08:26.931Z,101564.94
2022-08-20T12:11:05.227Z,101558.69
2022-08-20T12:13:48.307Z,101553.31
2022-08-20T12:16:19.075Z,101547.13
2022-08-20T12:18:48.350Z,101550.97
2022-08-20T12:21:16.440Z,101545.91
2022-08-20T12:23:44.621Z,101549.59
2022-08-20T12:26:11.945Z,101546.03
2022-08-20T12:28:39.229Z,101548.78
2022-08-20T12:31:08.162Z,101550.75
2022-08-20T12:33:35.507Z,101543.34
2022-08-20T12:36:06.282Z,101549.06
2022-08-20T12:38:36.065Z,101555.63
2022-08-20T12:41:03.476Z,101551.78
2022-08-20T12:43:30.765Z,101552.50
2022-08-20T12:45:58.172Z,101552.84
2022-08-20T12:48:28.342Z,101548.66
2022-08-20T12:50:55.713Z,101547.13
2022-08-20T12:53:22.989Z,101548.16
2022-08-20T12:55:50.287Z,101553.03
2022-08-20T12:58:17.614Z,101557.44
2022-08-20T13:00:50.620Z,101550.88
2022-08-20T13:03:20.029Z,101547.69
2022-08-20T13:05:50.101Z,101548.88
2022-08-20T13:08:19.165Z,101546.38
2022-08-20T13:10:47.139Z,101541.66
2022-08-20T13:13:20.944Z,101544.84
2022-08-20T13:15:50.902Z,101538.47
2022-08-20T13:18:19.536Z,101538.59
2022-08-20T13:20:48.261Z,101538.28
2022-08-20T13:23:16.062Z,101534.25
2022-08-20T13:25:43.366Z,101538.63
2022-08-20T13:28:10.665Z,101537.28
2022-08-20T13:30:39.092Z,101540.81
2022-08-20T13:33:09.642Z,101536.78
2022-08-20T13:35:38.059Z,101527.03
2022-08-20T13:38:05.542Z,101527.66
2022-08-20T13:40:33.088Z,101530.94
2022-08-20T13:43:05.954Z,101533.63
2022-08-20T13:45:35.051Z,101532.00
2022-08-20T13:48:02.731Z,101522.28
2022-08-20T13:50:31.885Z,101523.78
2022-08-20T13:52:59.305Z,101529.84
2022-08-20T13:55:29.377Z,101536.78
2022-08-20T13:57:58.378Z,101527.88
2022-08-20T14:00:34.590Z,101529.06
2022-08-20T14:03:05.852Z,101532.38
2022-08-20T14:05:36.714Z,101531.38
2022-08-20T14:08:21.400Z,101539.78
2022-08-20T14:10:51.503Z,101531.19
2022-08-20T14:13:24.400Z,101524.31
2022-08-20T14:15:52.359Z,101531.34
2022-08-20T14:18:19.938Z,101533.38
2022-08-20T14:20:47.672Z,101538.03
2022-08-20T14:23:15.944Z,101532.19
2022-08-20T14:25:49.402Z,101539.53
2022-08-20T14:28:22.985Z,101530.81
2022-08-20T14:30:52.611Z,101530.53
2022-08-20T14:33:23.761Z,101529.88
2022-08-20T14:35:53.007Z,101537.25
2022-08-20T14:38:22.832Z,101540.78
2022-08-20T14:40:50.612Z,101539.06
2022-08-20T14:43:18.480Z,101534.69
2022-08-20T14:45:45.999Z,101535.19
2022-08-20T14:48:14.917Z,101535.03
2022-08-20T14:50:42.383Z,101537.06
2022-08-20T14:53:09.712Z,101534.19
2022-08-20T14:55:38.484Z,101527.69
2022-08-20T14:58:15.048Z,101528.56
2022-08-20T15:00:43.645Z,101538.91
2022-08-20T15:03:13.389Z,101536.84
2022-08-20T15:05:41.051Z,101535.03
2022-08-20T15:08:10.732Z,101537.56
2022-08-20T15:10:39.176Z,101524.31
2022-08-20T15:13:07.654Z,101532.91
2022-08-20T15:15:35.417Z,101531.56
2022-08-20T15:18:03.487Z,101520.06
2022-08-20T15:20:34.491Z,101520.56
2022-08-20T15:23:02.560Z,101530.09
2022-08-20T15:25:36.753Z,101522.91
2022-08-20T15:28:09.770Z,101522.16
2022-08-20T15:30:43.559Z,101525.00
2022-08-20T15:33:11.526Z,101523.00
2022-08-20T15:35:39.310Z,101532.84
2022-08-20T15:38:07.283Z,101526.94
2022-08-20T15:40:34.761Z,101530.38
2022-08-20T15:43:04.692Z,101527.88
2022-08-20T15:45:34.155Z,101524.47
2022-08-20T15:48:17.308Z,101530.25
2022-08-20T15:51:46.557Z,101536.84
2022-08-20T15:54:25.181Z,101523.06
2022-08-20T15:57:17.378Z,101525.38
2022-08-20T16:00:40.971Z,101525.22
2022-08-20T16:03:34.898Z,101539.09
2022-08-20T16:06:22.988Z,101536.28
2022-08-20T16:09:34.087Z,101536.56
2022-08-20T16:12:20.034Z,101529.69
2022-08-20T16:14:56.889Z,101538.91
2022-08-20T16:17:52.593Z,101542.88
2022-08-20T16:20:47.995Z,101539.25
2022-08-20T16:23:21.505Z,101542.38
2022-08-20T16:26:16.064Z,101545.22
2022-08-20T16:29:17.866Z,101552.75
2022-08-20T16:31:56.340Z,101543.31
2022-08-20T16:34:42.421Z,101547.75
2022-08-20T16:37:59.508Z,101552.69
2022-08-20T16:40:39.120Z,101544.16
2022-08-20T16:43:12.389Z,101546.75
2022-08-20T16:45:59.994Z,101551.88
2022-08-20T16:48:57.842Z,101547.44
2022-08-20T16:51:51.979Z,101550.16
2022-08-20T16:54:28.346Z,101553.84
2022-08-20T16:57:06.411Z,101556.97
2022-08-20T16:59:53.335Z,101551.50
2022-08-20T17:02:21.471Z,101556.91
2022-08-20T17:04:59.326Z,101557.34
2022-08-20T17:07:53.329Z,101547.50
2022-08-20T17:10:40.532Z,101553.28
2022-08-20T17:13:13.785Z,101555.41
2022-08-20T17:15:57.049Z,101559.78
2022-08-20T17:18:37.010Z,101564.19
2022-08-20T17:21:26.086Z,101570.56
2022-08-20T17:24:04.791Z,101569.72
2022-08-20T17:26:53.988Z,101559.63
2022-08-20T17:29:29.347Z,101560.75
2022-08-20T17:32:10.126Z,101555.69
2022-08-20T17:34:51.983Z,101554.03
2022-08-20T17:37:40.657Z,101570.06
2022-08-20T17:40:29.277Z,101568.38
2022-08-20T17:43:04.011Z,101563.59
2022-08-20T17:45:46.557Z,101556.84
2022-08-20T17:48:28.870Z,101558.13
2022-08-20T17:50:58.134Z,101563.75
2022-08-20T17:53:36.836Z,101561.66
2022-08-20T17:56:31.552Z,101559.28
2022-08-20T18:00:02.694Z,101559.81
2022-08-20T18:02:33.958Z,101556.00
2022-08-20T18:05:02.760Z,101561.91
2022-08-20T18:07:56.243Z,101565.00
2022-08-20T18:10:27.131Z,101568.81
2022-08-20T18:13:19.752Z,101582.44
2022-08-20T18:15:57.017Z,101568.94
2022-08-20T18:19:36.294Z,101575.97
2022-08-20T18:22:20.525Z,101580.16
2022-08-20T18:25:37.075Z,101575.78
2022-08-20T18:28:27.503Z,101578.28
2022-08-20T18:31:08.901Z,101577.13
2022-08-20T18:33:43.654Z,101580.19
2022-08-20T18:36:27.109Z,101590.41
2022-08-20T18:39:31.268Z,101593.03
2022-08-20T18:42:09.683Z,101593.69
2022-08-20T18:44:47.790Z,101592.25
2022-08-20T18:47:33.021Z,101595.50
2022-08-20T18:50:40.333Z,101585.50
2022-08-20T18:53:13.175Z,101586.88
2022-08-20T18:55:47.705Z,101585.44
2022-08-20T18:58:46.958Z,101591.88
2022-08-20T19:01:15.772Z,101590.44
2022-08-20T19:03:53.262Z,101589.75
2022-08-20T19:07:18.283Z,101581.41
2022-08-20T19:10:27.962Z,101588.84
2022-08-20T19:13:41.531Z,101585.72
2022-08-20T19:16:20.188Z,101584.38
2022-08-20T19:18:54.875Z,101589.13
2022-08-20T19:21:35.698Z,101587.56
2022-08-20T19:24:07.362Z,101587.00
2022-08-20T19:26:47.672Z,101596.06
2022-08-20T19:29:31.006Z,101592.84
2022-08-20T19:32:07.254Z,101590.56
2022-08-20T19:34:36.399Z,101586.44
2022-08-20T19:37:35.824Z,101596.53
2022-08-20T19:40:21.586Z,101593.38
2022-08-20T19:42:49.834Z,101589.19
2022-08-20T19:45:52.027Z,101598.25
2022-08-20T19:48:50.503Z,101590.53
2022-08-20T19:51:53.994Z,101595.25
2022-08-20T19:54:26.450Z,101597.44
2022-08-20T19:57:05.240Z,101600.47
2022-08-20T19:59:32.744Z,101603.25
2022-08-20T20:02:04.913Z,101600.00
2022-08-20T20:04:55.625Z,101599.56
2022-08-20T20:07:46.722Z,101595.44
2022-08-20T20:10:36.559Z,101600.06
2022-08-20T20:13:13.817Z,101602.97
2022-08-20T20:15:43.619Z,101598.84
2022-08-20T20:18:12.081Z,101604.28
2022-08-20T20:20:57.950Z,101601.16
2022-08-20T20:23:41.631Z,101598.72
2022-08-20T20:26:20.251Z,101602.59
2022-08-20T20:29:03.674Z,101607.31
2022-08-20T20:31:45.127Z,101599.84
2022-08-20T20:34:15.564Z,101597.31
2022-08-20T20:36:47.703Z,101597.44
2022-08-20T20:39:41.177Z,101594.19
2022-08-20T20:42:13.906Z,101591.88
2022-08-20T20:44:44.899Z,101596.72
2022-08-20T20:47:33.370Z,101589.97
2022-08-20T20:50:12.391Z,101584.16
2022-08-20T20:52:54.543Z,101581.84
2022-08-20T20:55:37.911Z,101583.09
2022-08-20T20:58:05.681Z,101582.69
2022-08-20T21:00:34.957Z,101583.06
2022-08-20T21:03:02.668Z,101572.91
2022-08-20T21:05:33.205Z,101576.78
2022-08-20T21:08:08.094Z,101564.84
2022-08-20T21:10:39.604Z,101577.75
2022-08-20T21:13:10.582Z,101569.34
2022-08-20T21:15:39.856Z,101573.47
2022-08-20T21:18:09.312Z,101576.59
2022-08-20T21:20:37.179Z,101575.38
2022-08-20T21:23:05.195Z,101577.53
2022-08-20T21:25:35.219Z,101577.13
2022-08-20T21:28:03.792Z,101572.19
2022-08-20T21:30:33.716Z,101584.84
2022-08-20T21:33:01.181Z,101569.25
2022-08-20T21:35:30.130Z,101574.81
2022-08-20T21:37:57.460Z,101579.50
2022-08-20T21:40:28.450Z,101575.38
2022-08-20T21:42:56.344Z,101579.25
2022-08-20T21:45:23.694Z,101576.81
2022-08-20T21:47:57.205Z,101573.53
2022-08-20T21:50:25.753Z,101575.56
2022-08-20T21:52:59.149Z,101575.91
2022-08-20T21:55:37.510Z,101577.94
2022-08-20T21:58:08.003Z,101578.19
2022-08-20T22:01:04.190Z,101575.00
2022-08-20T22:03:38.669Z,101574.28
2022-08-20T22:06:11.765Z,101574.38
2022-08-20T22:08:39.776Z,101565.59
2022-08-20T22:11:10.681Z,101565.59
2022-08-20T22:13:39.764Z,101573.56
2022-08-20T22:16:19.569Z,101562.19
2022-08-20T22:18:49.414Z,101564.09
2022-08-20T22:21:31.692Z,101568.66
2022-08-20T22:24:05.359Z,101559.22
2022-08-20T22:26:36.728Z,101566.22
2022-08-20T22:29:06.792Z,101568.03
2022-08-20T22:31:40.369Z,101564.75
2022-08-20T22:34:09.889Z,101566.56
2022-08-20T22:36:37.433Z,101562.22
2022-08-20T22:39:05.558Z,101563.28
2022-08-20T22:41:33.172Z,101561.72
2022-08-20T22:44:00.685Z,101558.53
2022-08-20T22:46:36.662Z,101554.44
2022-08-20T22:49:09.286Z,101554.66
2022-08-20T22:51:39.082Z,101552.13
2022-08-20T22:54:13.794Z,101551.47
2022-08-20T22:56:41.079Z,101546.38
2022-08-20T22:59:08.608Z,101551.06
2022-08-20T23:01:37.045Z,101552.13
2022-08-20T23:04:17.360Z,101550.56
2022-08-20T23:06:44.905Z,101549.09
2022-08-20T23:09:13.066Z,101547.50
2022-08-20T23:11:41.190Z,101548.56
2022-08-20T23:14:08.598Z,101545.06
2022-08-20T23:16:43.708Z,101537.34
2022-08-20T23:19:23.062Z,101534.78
2022-08-20T23:21:51.730Z,101533.22
2022-08-20T23:24:20.123Z,101528.25
2022-08-20T23:26:52.525Z,101537.25
2022-08-20T23:29:25.414Z,101534.00
2022-08-20T23:31:56.672Z,101538.88
2022-08-20T23:34:25.960Z,101538.22
2022-08-20T23:36:55.930Z,101526.28
2022-08-20T23:39:25.508Z,101537.09
2022-08-20T23:41:53.513Z,101532.00
2022-08-20T23:44:26.101Z,101527.75
2022-08-20T23:47:02.508Z,101533.28
2022-08-20T23:49:32.148Z,101536.00
2022-08-20T23:52:00.741Z,101531.75
2022-08-20T23:54:33.485Z,101530.19
2022-08-20T23:57:00.924Z,101529.31
2022-08-20T23:59:28.308Z,101529.31
